John H. — WAC6768 — position and weather

sailwx.info

Track history (hours):
 
Tides and Currents Weather Stations Pressure Air Temp Water Temp Dewpoint Dewpoint Depression Visibility Wind Speed Wind Dir Waves Ship Positions

John H.

Owner: CROSS SOUND FERRY SERVICE INC, NEW LOUDON, CT. More information available from US FCC via Universal Licensing System and Coast Guard Vessel Documentation Center.

Last reported at 2015-Sep-02 14:33 UTC. Time now 2015-Sep-02 14:51 UTC.
Position N 41°09' W 072°14'.

Length 70 m.

Type: Passenger vessel. MMSI: 366934890.

Date/timePositionNaut miles runAvg speedWind from/ knotsBaromVisibWave heightAir tempDewpointWater temp
2015-Sep-02 14:33N 41°09' W 072°14'1212.0
2015-Sep-02 13:33N 41°19' W 072°05'2 2.4
2015-Sep-02 12:33N 41°21' W 072°05'1111.5
2015-Sep-02 11:34N 41°11' W 072°13'2 2.3
2015-Sep-02 10:33N 41°09' W 072°14'0 0.0
2015-Sep-02 00:33N 41°09' W 072°14'8 8.5
2015-Sep-01 23:33N 41°16' W 072°08'6 5.6
2015-Sep-01 22:33N 41°21' W 072°06'9 8.6
2015-Sep-01 21:34N 41°13' W 072°10'5 5.4
2015-Sep-01 20:33N 41°09' W 072°14'9 8.5
2015-Sep-01 19:33N 41°16' W 072°07'6 5.6
2015-Sep-01 18:33N 41°21' W 072°06'8 8.5
2015-Sep-01 17:33N 41°14' W 072°10'6 5.5
2015-Sep-01 16:33N 41°09' W 072°14'9 8.9
2015-Sep-01 15:33N 41°16' W 072°07'5 5.2
2015-Sep-01 14:33N 41°21' W 072°06'9 9.3
2015-Sep-01 13:33N 41°13' W 072°11'5 4.6
2015-Sep-01 12:34N 41°09' W 072°14'8 7.8
2015-Sep-01 11:34N 41°15' W 072°08'6 6.2
2015-Sep-01 10:34N 41°21' W 072°06'0 0.0
2015-Sep-01 00:23N 41°21' W 072°06'8 9.6
2015-Aug-31 23:33N 41°14' W 072°09'6 6.2
2015-Aug-31 22:33N 41°09' W 072°14'9 8.9
2015-Aug-31 21:33N 41°16' W 072°07'5 5.3
2015-Aug-31 20:33N 41°21' W 072°06'8 8.4
2015-Aug-31 19:33N 41°14' W 072°10'6 5.6
2015-Aug-31 18:33N 41°09' W 072°14'9 8.7
2015-Aug-31 17:33N 41°16' W 072°07'6 5.5
2015-Aug-31 16:33N 41°21' W 072°06'9 8.9
2015-Aug-31 15:33N 41°13' W 072°10'5 5.1
2015-Aug-31 14:34N 41°09' W 072°14'9 8.7
2015-Aug-31 13:33N 41°16' W 072°07'5 5.4
2015-Aug-31 12:33N 41°21' W 072°06'14 1.3
2015-Aug-31 02:11N 41°09' W 072°14'812.5
2015-Aug-31 01:34N 41°15' W 072°08'5 1.6
2015-Aug-30 22:05N 41°11' W 072°13'1 0.2
2015-Aug-30 18:05N 41°12' W 072°12'2 0.1
2015-Aug-30 01:30N 41°13' W 072°11'2 1.1
2015-Aug-29 23:20N 41°11' W 072°13'1 1.1
2015-Aug-29 22:09N 41°10' W 072°14'812.7
2015-Aug-29 21:33N 41°16' W 072°07'5 2.5
2015-Aug-29 19:33N 41°13' W 072°12'1 0.8
2015-Aug-29 18:06N 41°12' W 072°13'3 1.2
2015-Aug-29 15:33N 41°14' W 072°10'0 0.1
2015-Aug-29 11:33N 41°13' W 072°10'5 4.5
2015-Aug-29 10:22N 41°09' W 072°14'5 0.6
2015-Aug-29 01:33N 41°14' W 072°11'3 0.5
2015-Aug-28 18:10N 41°11' W 072°13'12 7.0
2015-Aug-28 16:27N 41°21' W 072°06'8 8.9
2015-Aug-28 15:33N 41°14' W 072°10'6 5.9
2015-Aug-28 14:33N 41°09' W 072°14'9 9.0
2015-Aug-28 13:33N 41°16' W 072°07'5 5.1
2015-Aug-28 12:34N 41°21' W 072°06'9 9.0
2015-Aug-28 11:33N 41°13' W 072°10'5 4.9
2015-Aug-28 10:33N 41°09' W 072°14'0 0.0
2015-Aug-28 02:08N 41°09' W 072°14'5 8.1
2015-Aug-28 01:34N 41°13' W 072°11'9 9.2
2015-Aug-28 00:33N 41°21' W 072°06'9 9.0
2015-Aug-27 23:33N 41°13' W 072°10'5 4.9
2015-Aug-27 22:33N 41°09' W 072°14'8 7.9
2015-Aug-27 21:33N 41°16' W 072°08'6 6.1
2015-Aug-27 20:33N 41°21' W 072°06'8 8.2
2015-Aug-27 19:33N 41°14' W 072°09'6 5.9
2015-Aug-27 18:33N 41°09' W 072°14'8 8.4
2015-Aug-27 17:33N 41°16' W 072°08'6 5.6
2015-Aug-27 16:33N 41°21' W 072°06'9 8.6
2015-Aug-27 15:34N 41°13' W 072°10'5 5.4
2015-Aug-27 14:33N 41°09' W 072°14'8 8.3
2015-Aug-27 13:34N 41°16' W 072°08'6 5.8
2015-Aug-27 12:33N 41°21' W 072°06'9 9.1
2015-Aug-27 11:34N 41°13' W 072°10'5 4.8
2015-Aug-27 10:33N 41°09' W 072°14'0 0.0
2015-Aug-27 00:32N 41°09' W 072°14'8 8.6
2015-Aug-26 23:34N 41°16' W 072°08'6 5.7
2015-Aug-26 22:34N 41°21' W 072°06'9 8.6
2015-Aug-26 21:34N 41°13' W 072°10'5 5.4
2015-Aug-26 20:33N 41°09' W 072°14'9 8.5
2015-Aug-26 19:33N 41°16' W 072°07'6 5.6
2015-Aug-26 18:33N 41°21' W 072°06'8 7.8
2015-Aug-26 17:34N 41°14' W 072°09'6 6.3
2015-Aug-26 16:33N 41°09' W 072°14'8 8.2
2015-Aug-26 15:34N 41°16' W 072°08'6 5.8
2015-Aug-26 14:34N 41°21' W 072°06'9 8.6
2015-Aug-26 13:33N 41°13' W 072°09'6 5.5
2015-Aug-26 12:33N 41°09' W 072°14'9 8.9
2015-Aug-26 11:33N 41°16' W 072°07'5 5.3
2015-Aug-26 10:33N 41°21' W 072°06'0 0.0
2015-Aug-26 00:31N 41°21' W 072°06'9 9.6
2015-Aug-25 23:33N 41°13' W 072°11'5 4.7
2015-Aug-25 22:33N 41°09' W 072°14'9 8.9
2015-Aug-25 21:34N 41°16' W 072°07'5 5.2
2015-Aug-25 20:33N 41°21' W 072°06'9 9.1
2015-Aug-25 19:34N 41°13' W 072°11'5 4.7
2015-Aug-25 18:33N 41°09' W 072°14'1010.0
2015-Aug-25 17:33N 41°17' W 072°06'4 4.3
2015-Aug-25 16:33N 41°21' W 072°05'1211.8
2015-Aug-25 15:33N 41°11' W 072°13'2 2.0
2015-Aug-25 14:33N 41°09' W 072°14'9 9.3
2015-Aug-25 13:34N 41°16' W 072°07'5 4.9
2015-Aug-25 12:33N 41°21' W 072°06'9 8.6
2015-Aug-25 11:33N 41°13' W 072°10'5 5.3
2015-Aug-25 10:33N 41°09' W 072°14'0 0.0
2015-Aug-25 00:33N 41°09' W 072°14'9 9.1
2015-Aug-24 23:33N 41°16' W 072°07'5 5.1
2015-Aug-24 22:34N 41°21' W 072°06'9 9.3
2015-Aug-24 21:33N 41°13' W 072°11'5 4.5
2015-Aug-24 20:33N 41°09' W 072°14'9 9.3
2015-Aug-24 19:33N 41°17' W 072°07'5 4.8
2015-Aug-24 18:33N 41°21' W 072°06'9 9.2
2015-Aug-24 17:33N 41°13' W 072°11'5 4.7
2015-Aug-24 16:33N 41°09' W 072°14'0 0.0
2015-Aug-24 12:33N 41°09' W 072°14'10 9.0
2015-Aug-24 11:28N 41°17' W 072°06'5 5.0
2015-Aug-24 10:33N 41°21' W 072°06'0 0.0
2015-Aug-24 02:33N 41°21' W 072°06'1110.6
2015-Aug-24 01:33N 41°12' W 072°12'3 3.3
2015-Aug-24 00:33N 41°09' W 072°14'1010.3
2015-Aug-23 23:33N 41°17' W 072°06'4 4.1
2015-Aug-23 22:33N 41°21' W 072°06'8 8.4
2015-Aug-23 21:33N 41°13' W 072°09'6 5.6
2015-Aug-23 20:33N 41°09' W 072°14'9 8.8
2015-Aug-23 19:33N 41°16' W 072°07'5 5.3
2015-Aug-23 18:33N 41°21' W 072°06'8 8.5
2015-Aug-23 17:33N 41°14' W 072°10'5 5.5
2015-Aug-23 16:33N 41°09' W 072°14'8 8.3
2015-Aug-23 15:33N 41°16' W 072°08'  
Track history (hours):
 
Tides and Currents Weather Stations Pressure Air Temp Water Temp Dewpoint Dewpoint Depression Visibility Wind Speed Wind Dir Waves Ship Positions

John H.

Owner: CROSS SOUND FERRY SERVICE INC, NEW LOUDON, CT. More information available from US FCC via Universal Licensing System and Coast Guard Vessel Documentation Center.

Last reported at 2015-Sep-02 14:33 UTC. Time now 2015-Sep-02 14:51 UTC.
Position N 41°09' W 072°14'.

Length 70 m.

Type: Passenger vessel. MMSI: 366934890.

Date/timePositionNaut miles runAvg speedWind from/ knotsBaromVisibWave heightAir tempDewpointWater temp
2015-Sep-02 14:33N 41°09' W 072°14'1212.0
2015-Sep-02 13:33N 41°19' W 072°05'2 2.4
2015-Sep-02 12:33N 41°21' W 072°05'1111.5
2015-Sep-02 11:34N 41°11' W 072°13'2 2.3
2015-Sep-02 10:33N 41°09' W 072°14'0 0.0
2015-Sep-02 00:33N 41°09' W 072°14'8 8.5
2015-Sep-01 23:33N 41°16' W 072°08'6 5.6
2015-Sep-01 22:33N 41°21' W 072°06'9 8.6
2015-Sep-01 21:34N 41°13' W 072°10'5 5.4
2015-Sep-01 20:33N 41°09' W 072°14'9 8.5
2015-Sep-01 19:33N 41°16' W 072°07'6 5.6
2015-Sep-01 18:33N 41°21' W 072°06'8 8.5
2015-Sep-01 17:33N 41°14' W 072°10'6 5.5
2015-Sep-01 16:33N 41°09' W 072°14'9 8.9
2015-Sep-01 15:33N 41°16' W 072°07'5 5.2
2015-Sep-01 14:33N 41°21' W 072°06'9 9.3
2015-Sep-01 13:33N 41°13' W 072°11'5 4.6
2015-Sep-01 12:34N 41°09' W 072°14'8 7.8
2015-Sep-01 11:34N 41°15' W 072°08'6 6.2
2015-Sep-01 10:34N 41°21' W 072°06'0 0.0
2015-Sep-01 00:23N 41°21' W 072°06'8 9.6
2015-Aug-31 23:33N 41°14' W 072°09'6 6.2
2015-Aug-31 22:33N 41°09' W 072°14'9 8.9
2015-Aug-31 21:33N 41°16' W 072°07'5 5.3
2015-Aug-31 20:33N 41°21' W 072°06'8 8.4
2015-Aug-31 19:33N 41°14' W 072°10'6 5.6
2015-Aug-31 18:33N 41°09' W 072°14'9 8.7
2015-Aug-31 17:33N 41°16' W 072°07'6 5.5
2015-Aug-31 16:33N 41°21' W 072°06'9 8.9
2015-Aug-31 15:33N 41°13' W 072°10'5 5.1
2015-Aug-31 14:34N 41°09' W 072°14'9 8.7
2015-Aug-31 13:33N 41°16' W 072°07'5 5.4
2015-Aug-31 12:33N 41°21' W 072°06'14 1.3
2015-Aug-31 02:11N 41°09' W 072°14'812.5
2015-Aug-31 01:34N 41°15' W 072°08'5 1.6
2015-Aug-30 22:05N 41°11' W 072°13'1 0.2
2015-Aug-30 18:05N 41°12' W 072°12'2 0.1
2015-Aug-30 01:30N 41°13' W 072°11'2 1.1
2015-Aug-29 23:20N 41°11' W 072°13'1 1.1
2015-Aug-29 22:09N 41°10' W 072°14'812.7
2015-Aug-29 21:33N 41°16' W 072°07'5 2.5
2015-Aug-29 19:33N 41°13' W 072°12'1 0.8
2015-Aug-29 18:06N 41°12' W 072°13'3 1.2
2015-Aug-29 15:33N 41°14' W 072°10'0 0.1
2015-Aug-29 11:33N 41°13' W 072°10'5 4.5
2015-Aug-29 10:22N 41°09' W 072°14'5 0.6
2015-Aug-29 01:33N 41°14' W 072°11'3 0.5
2015-Aug-28 18:10N 41°11' W 072°13'12 7.0
2015-Aug-28 16:27N 41°21' W 072°06'8 8.9
2015-Aug-28 15:33N 41°14' W 072°10'6 5.9
2015-Aug-28 14:33N 41°09' W 072°14'9 9.0
2015-Aug-28 13:33N 41°16' W 072°07'5 5.1
2015-Aug-28 12:34N 41°21' W 072°06'9 9.0
2015-Aug-28 11:33N 41°13' W 072°10'5 4.9
2015-Aug-28 10:33N 41°09' W 072°14'0 0.0
2015-Aug-28 02:08N 41°09' W 072°14'5 8.1
2015-Aug-28 01:34N 41°13' W 072°11'9 9.2
2015-Aug-28 00:33N 41°21' W 072°06'9 9.0
2015-Aug-27 23:33N 41°13' W 072°10'5 4.9
2015-Aug-27 22:33N 41°09' W 072°14'8 7.9
2015-Aug-27 21:33N 41°16' W 072°08'6 6.1
2015-Aug-27 20:33N 41°21' W 072°06'8 8.2
2015-Aug-27 19:33N 41°14' W 072°09'6 5.9
2015-Aug-27 18:33N 41°09' W 072°14'8 8.4
2015-Aug-27 17:33N 41°16' W 072°08'6 5.6
2015-Aug-27 16:33N 41°21' W 072°06'9 8.6
2015-Aug-27 15:34N 41°13' W 072°10'5 5.4
2015-Aug-27 14:33N 41°09' W 072°14'8 8.3
2015-Aug-27 13:34N 41°16' W 072°08'6 5.8
2015-Aug-27 12:33N 41°21' W 072°06'9 9.1
2015-Aug-27 11:34N 41°13' W 072°10'5 4.8
2015-Aug-27 10:33N 41°09' W 072°14'0 0.0
2015-Aug-27 00:32N 41°09' W 072°14'8 8.6
2015-Aug-26 23:34N 41°16' W 072°08'6 5.7
2015-Aug-26 22:34N 41°21' W 072°06'9 8.6
2015-Aug-26 21:34N 41°13' W 072°10'5 5.4
2015-Aug-26 20:33N 41°09' W 072°14'9 8.5
2015-Aug-26 19:33N 41°16' W 072°07'6 5.6
2015-Aug-26 18:33N 41°21' W 072°06'8 7.8
2015-Aug-26 17:34N 41°14' W 072°09'6 6.3
2015-Aug-26 16:33N 41°09' W 072°14'8 8.2
2015-Aug-26 15:34N 41°16' W 072°08'6 5.8
2015-Aug-26 14:34N 41°21' W 072°06'9 8.6
2015-Aug-26 13:33N 41°13' W 072°09'6 5.5
2015-Aug-26 12:33N 41°09' W 072°14'9 8.9
2015-Aug-26 11:33N 41°16' W 072°07'5 5.3
2015-Aug-26 10:33N 41°21' W 072°06'0 0.0
2015-Aug-26 00:31N 41°21' W 072°06'9 9.6
2015-Aug-25 23:33N 41°13' W 072°11'5 4.7
2015-Aug-25 22:33N 41°09' W 072°14'9 8.9
2015-Aug-25 21:34N 41°16' W 072°07'5 5.2
2015-Aug-25 20:33N 41°21' W 072°06'9 9.1
2015-Aug-25 19:34N 41°13' W 072°11'5 4.7
2015-Aug-25 18:33N 41°09' W 072°14'1010.0
2015-Aug-25 17:33N 41°17' W 072°06'4 4.3
2015-Aug-25 16:33N 41°21' W 072°05'1211.8
2015-Aug-25 15:33N 41°11' W 072°13'2 2.0
2015-Aug-25 14:33N 41°09' W 072°14'9 9.3
2015-Aug-25 13:34N 41°16' W 072°07'5 4.9
2015-Aug-25 12:33N 41°21' W 072°06'9 8.6
2015-Aug-25 11:33N 41°13' W 072°10'5 5.3
2015-Aug-25 10:33N 41°09' W 072°14'0 0.0
2015-Aug-25 00:33N 41°09' W 072°14'9 9.1
2015-Aug-24 23:33N 41°16' W 072°07'5 5.1
2015-Aug-24 22:34N 41°21' W 072°06'9 9.3
2015-Aug-24 21:33N 41°13' W 072°11'5 4.5
2015-Aug-24 20:33N 41°09' W 072°14'9 9.3
2015-Aug-24 19:33N 41°17' W 072°07'5 4.8
2015-Aug-24 18:33N 41°21' W 072°06'9 9.2
2015-Aug-24 17:33N 41°13' W 072°11'5 4.7
2015-Aug-24 16:33N 41°09' W 072°14'0 0.0
2015-Aug-24 12:33N 41°09' W 072°14'10 9.0
2015-Aug-24 11:28N 41°17' W 072°06'5 5.0
2015-Aug-24 10:33N 41°21' W 072°06'0 0.0
2015-Aug-24 02:33N 41°21' W 072°06'1110.6
2015-Aug-24 01:33N 41°12' W 072°12'3 3.3
2015-Aug-24 00:33N 41°09' W 072°14'1010.3
2015-Aug-23 23:33N 41°17' W 072°06'4 4.1
2015-Aug-23 22:33N 41°21' W 072°06'8 8.4
2015-Aug-23 21:33N 41°13' W 072°09'6 5.6
2015-Aug-23 20:33N 41°09' W 072°14'9 8.8
2015-Aug-23 19:33N 41°16' W 072°07'5 5.3
2015-Aug-23 18:33N 41°21' W 072°06'8 8.5
2015-Aug-23 17:33N 41°14' W 072°10'5 5.5
2015-Aug-23 16:33N 41°09' W 072°14'8 8.3
2015-Aug-23 15:33N 41°16' W 072°08'  

Dump ship's entire track history